岡山グライダークラブ活動状況掲示板あなたは無料カウンター人目の訪問者です

岡山グライダークラブ
岡山市浦安南町639-1 岡南飛行場
 使用機:シャイベ式 SF25C型 ファルケ   JA2330
      ヴァレンティン式17E型 タイフーン  JA2342
 練習日:毎日曜日  クラブルーム:電話 086-265-1810
この掲示板は岡山グライダークラブの活動状況をお知らせする掲示板です。
!!!この掲示板は投稿規制をしています。!!!
クラブ関連各種情報は 岡山グライダークラブクラブルーム      を       .
  ブリーフイング情報は  岡山グライダークラブブリーフィングルーム  をご覧下さい。 .
※写真はクリックすると拡大して見ることが出来ます。
岡南飛行場へのアクセス等は 岡南飛行場管理事務所 をご覧ください。
クラブの ホームページ ができました。

 
09月20日
by OGC at 2020/9/21(月) 01:12:26 No.20200921010837  削除コメント
1024 x 768 x 92,404バイト
No.1

09月20日
本日の参加者
  会員      13名
  その他      0名


@本日の様子






METAR
RJOB 200000Z VRB01KT 9999 FEW025 BKN/// 20/14 Q1015
RJOT 200000Z 10003KT 060V130 9999 FEW030 SCT150 BKN/// 22/14 Q1016
RJOA 200000Z 29004KT CAVOK 22/07 Q1016
TAF
RJOB 192305Z 2000/2106 08004KT 9999 FEW025
     BECMG 2000/2002 21006KT
     BECMG 2008/2010 34006KT
RJOT 192310Z 2000/2106 15004KT 9999 FEW030
     BECMG 2000/2002 26006KT
     BECMG 2012/2015 15004KT
RJOA 192306Z 2000/2106 19005KT 9999 FEW030
     BECMG 2008/2010 34011KT
     BECMG 2100/2103 04008KT

本日は曇りで、サーマルも期待できないため、ライセンサーは高松空港や豊浜方面へNAVに出ていました。
訓練生は、与島へNAVに出たり、基礎訓練を行っていました。

解散    17:40

1番機  11:05離陸 撤収機  17:20着陸 

SF25C JA2330 ファルケ     08Flt.3h35hmin  
17E   JA2342 タイフーン    04Flt.2h20min  
合計                    12Flt.5h55min

    << 戻る || ホームページ || 最新の掲示板へ